sensor_id;sensor_type;location;lat;lon;timestamp;P1;durP1;ratioP1;P2;durP2;ratioP2
55603;SDS011;41468;48.838;9.330;2024-03-02T00:01:40;10.70;;;8.03;;
55603;SDS011;41468;48.838;9.330;2024-03-02T00:04:07;10.90;;;8.23;;
55603;SDS011;41468;48.838;9.330;2024-03-02T00:06:34;9.43;;;8.23;;
55603;SDS011;41468;48.838;9.330;2024-03-02T00:09:01;10.00;;;8.57;;
55603;SDS011;41468;48.838;9.330;2024-03-02T00:11:28;12.03;;;8.70;;
55603;SDS011;41468;48.838;9.330;2024-03-02T00:14:05;10.40;;;8.30;;
55603;SDS011;41468;48.838;9.330;2024-03-02T00:16:32;9.90;;;8.50;;
55603;SDS011;41468;48.838;9.330;2024-03-02T00:19:03;8.87;;;7.67;;
55603;SDS011;41468;48.838;9.330;2024-03-02T00:21:32;8.57;;;7.63;;
55603;SDS011;41468;48.838;9.330;2024-03-02T00:24:08;10.83;;;8.10;;
55603;SDS011;41468;48.838;9.330;2024-03-02T00:26:46;11.70;;;8.77;;
55603;SDS011;41468;48.838;9.330;2024-03-02T00:29:14;8.80;;;7.90;;
55603;SDS011;41468;48.838;9.330;2024-03-02T00:31:44;9.30;;;8.10;;
55603;SDS011;41468;48.838;9.330;2024-03-02T00:34:11;8.47;;;7.57;;
55603;SDS011;41468;48.838;9.330;2024-03-02T00:36:40;10.97;;;7.67;;
55603;SDS011;41468;48.838;9.330;2024-03-02T00:39:07;8.40;;;7.60;;
55603;SDS011;41468;48.838;9.330;2024-03-02T00:41:34;9.30;;;8.33;;
55603;SDS011;41468;48.838;9.330;2024-03-02T00:46:33;8.67;;;7.87;;
55603;SDS011;41468;48.838;9.330;2024-03-02T00:49:02;9.73;;;8.53;;
55603;SDS011;41468;48.838;9.330;2024-03-02T00:51:32;10.03;;;8.47;;
55603;SDS011;41468;48.838;9.330;2024-03-02T00:54:10;8.00;;;7.20;;
55603;SDS011;41468;48.838;9.330;2024-03-02T00:56:37;11.63;;;8.33;;
55603;SDS011;41468;48.838;9.330;2024-03-02T00:59:04;9.97;;;8.90;;
55603;SDS011;41468;48.838;9.330;2024-03-02T01:01:31;11.13;;;8.23;;
55603;SDS011;41468;48.838;9.330;2024-03-02T01:03:58;12.07;;;8.40;;
55603;SDS011;41468;48.838;9.330;2024-03-02T01:06:25;9.47;;;8.50;;
55603;SDS011;41468;48.838;9.330;2024-03-02T01:08:51;9.40;;;8.40;;
55603;SDS011;41468;48.838;9.330;2024-03-02T01:11:23;9.43;;;8.50;;
55603;SDS011;41468;48.838;9.330;2024-03-02T01:13:55;11.97;;;8.43;;
55603;SDS011;41468;48.838;9.330;2024-03-02T01:16:27;9.83;;;8.83;;
55603;SDS011;41468;48.838;9.330;2024-03-02T01:18:59;9.30;;;8.30;;
55603;SDS011;41468;48.838;9.330;2024-03-02T01:21:31;9.27;;;8.20;;
55603;SDS011;41468;48.838;9.330;2024-03-02T01:24:03;10.50;;;8.83;;
55603;SDS011;41468;48.838;9.330;2024-03-02T01:26:35;10.90;;;9.33;;
55603;SDS011;41468;48.838;9.330;2024-03-02T01:29:07;10.00;;;8.73;;
55603;SDS011;41468;48.838;9.330;2024-03-02T01:31:34;10.90;;;8.87;;
55603;SDS011;41468;48.838;9.330;2024-03-02T01:34:01;9.47;;;8.47;;
55603;SDS011;41468;48.838;9.330;2024-03-02T01:36:28;12.50;;;9.00;;
55603;SDS011;41468;48.838;9.330;2024-03-02T01:38:54;10.17;;;8.30;;
55603;SDS011;41468;48.838;9.330;2024-03-02T01:41:21;9.90;;;8.70;;
55603;SDS011;41468;48.838;9.330;2024-03-02T01:43:48;10.20;;;8.80;;
55603;SDS011;41468;48.838;9.330;2024-03-02T01:46:14;12.70;;;9.30;;
55603;SDS011;41468;48.838;9.330;2024-03-02T01:48:41;10.53;;;8.37;;
55603;SDS011;41468;48.838;9.330;2024-03-02T01:51:08;10.17;;;8.90;;
55603;SDS011;41468;48.838;9.330;2024-03-02T01:53:35;11.80;;;9.27;;
55603;SDS011;41468;48.838;9.330;2024-03-02T01:56:02;11.00;;;9.33;;
55603;SDS011;41468;48.838;9.330;2024-03-02T01:58:29;10.70;;;9.17;;
55603;SDS011;41468;48.838;9.330;2024-03-02T02:00:55;9.90;;;8.13;;
55603;SDS011;41468;48.838;9.330;2024-03-02T02:03:22;9.50;;;8.50;;
55603;SDS011;41468;48.838;9.330;2024-03-02T02:05:49;10.87;;;8.63;;
55603;SDS011;41468;48.838;9.330;2024-03-02T02:08:16;11.00;;;9.00;;
55603;SDS011;41468;48.838;9.330;2024-03-02T02:10:43;11.30;;;8.70;;
55603;SDS011;41468;48.838;9.330;2024-03-02T02:13:10;11.47;;;8.90;;
55603;SDS011;41468;48.838;9.330;2024-03-02T02:34:21;10.17;;;8.80;;
55603;SDS011;41468;48.838;9.330;2024-03-02T02:36:54;10.33;;;8.93;;
55603;SDS011;41468;48.838;9.330;2024-03-02T02:39:27;10.63;;;8.80;;
55603;SDS011;41468;48.838;9.330;2024-03-02T02:42:00;10.37;;;9.27;;
55603;SDS011;41468;48.838;9.330;2024-03-02T02:44:35;13.27;;;8.90;;
55603;SDS011;41468;48.838;9.330;2024-03-02T02:47:08;11.37;;;9.93;;
55603;SDS011;41468;48.838;9.330;2024-03-02T02:49:40;11.23;;;9.73;;
55603;SDS011;41468;48.838;9.330;2024-03-02T02:52:14;12.67;;;9.37;;
55603;SDS011;41468;48.838;9.330;2024-03-02T02:54:47;11.33;;;9.70;;
55603;SDS011;41468;48.838;9.330;2024-03-02T02:57:20;12.57;;;9.83;;
55603;SDS011;41468;48.838;9.330;2024-03-02T02:59:53;11.53;;;9.30;;
55603;SDS011;41468;48.838;9.330;2024-03-02T03:02:27;12.10;;;9.77;;
55603;SDS011;41468;48.838;9.330;2024-03-02T03:05:00;12.03;;;10.07;;
55603;SDS011;41468;48.838;9.330;2024-03-02T03:07:33;12.70;;;10.13;;
55603;SDS011;41468;48.838;9.330;2024-03-02T03:10:09;12.13;;;9.63;;
55603;SDS011;41468;48.838;9.330;2024-03-02T03:12:42;11.83;;;9.60;;
55603;SDS011;41468;48.838;9.330;2024-03-02T03:15:16;12.47;;;10.53;;
55603;SDS011;41468;48.838;9.330;2024-03-02T03:17:49;12.57;;;10.37;;
55603;SDS011;41468;48.838;9.330;2024-03-02T03:20:23;11.17;;;9.67;;
55603;SDS011;41468;48.838;9.330;2024-03-02T03:22:56;12.27;;;10.10;;
55603;SDS011;41468;48.838;9.330;2024-03-02T03:25:30;13.03;;;9.87;;
55603;SDS011;41468;48.838;9.330;2024-03-02T03:28:03;12.53;;;9.40;;
55603;SDS011;41468;48.838;9.330;2024-03-02T03:30:39;10.93;;;9.60;;
55603;SDS011;41468;48.838;9.330;2024-03-02T03:33:12;13.30;;;10.20;;
55603;SDS011;41468;48.838;9.330;2024-03-02T03:35:45;13.00;;;10.13;;
55603;SDS011;41468;48.838;9.330;2024-03-02T03:38:18;12.40;;;10.03;;
55603;SDS011;41468;48.838;9.330;2024-03-02T03:40:45;10.93;;;9.77;;
55603;SDS011;41468;48.838;9.330;2024-03-02T03:43:12;13.80;;;10.33;;
55603;SDS011;41468;48.838;9.330;2024-03-02T03:45:39;13.50;;;10.67;;
55603;SDS011;41468;48.838;9.330;2024-03-02T03:48:13;13.40;;;10.53;;
55603;SDS011;41468;48.838;9.330;2024-03-02T03:50:40;13.50;;;10.60;;
55603;SDS011;41468;48.838;9.330;2024-03-02T03:53:07;11.17;;;9.93;;
55603;SDS011;41468;48.838;9.330;2024-03-02T03:55:54;14.17;;;10.17;;
55603;SDS011;41468;48.838;9.330;2024-03-02T03:58:28;13.43;;;10.30;;
55603;SDS011;41468;48.838;9.330;2024-03-02T04:00:54;12.37;;;10.23;;
55603;SDS011;41468;48.838;9.330;2024-03-02T04:03:21;11.97;;;10.33;;
55603;SDS011;41468;48.838;9.330;2024-03-02T04:05:48;12.43;;;10.53;;
55603;SDS011;41468;48.838;9.330;2024-03-02T04:08:15;12.73;;;10.73;;
55603;SDS011;41468;48.838;9.330;2024-03-02T04:10:42;11.97;;;10.33;;
55603;SDS011;41468;48.838;9.330;2024-03-02T04:13:08;13.17;;;10.60;;
55603;SDS011;41468;48.838;9.330;2024-03-02T04:15:36;13.33;;;10.40;;
55603;SDS011;41468;48.838;9.330;2024-03-02T04:18:03;13.80;;;10.33;;
55603;SDS011;41468;48.838;9.330;2024-03-02T04:20:30;13.17;;;11.07;;
55603;SDS011;41468;48.838;9.330;2024-03-02T04:22:57;13.03;;;9.70;;
55603;SDS011;41468;48.838;9.330;2024-03-02T04:25:24;13.90;;;10.50;;
55603;SDS011;41468;48.838;9.330;2024-03-02T04:27:50;13.30;;;10.57;;
55603;SDS011;41468;48.838;9.330;2024-03-02T04:30:17;13.23;;;9.87;;
55603;SDS011;41468;48.838;9.330;2024-03-02T04:32:44;11.47;;;9.40;;
55603;SDS011;41468;48.838;9.330;2024-03-02T04:35:18;11.10;;;9.40;;
55603;SDS011;41468;48.838;9.330;2024-03-02T04:37:50;11.83;;;10.00;;
55603;SDS011;41468;48.838;9.330;2024-03-02T04:40:17;13.13;;;9.80;;
55603;SDS011;41468;48.838;9.330;2024-03-02T04:42:44;12.57;;;9.70;;
55603;SDS011;41468;48.838;9.330;2024-03-02T04:45:11;19.40;;;10.27;;
55603;SDS011;41468;48.838;9.330;2024-03-02T04:47:37;12.07;;;9.97;;
55603;SDS011;41468;48.838;9.330;2024-03-02T04:50:04;14.30;;;10.07;;
55603;SDS011;41468;48.838;9.330;2024-03-02T04:52:32;13.97;;;10.53;;
55603;SDS011;41468;48.838;9.330;2024-03-02T04:54:59;13.77;;;10.37;;
55603;SDS011;41468;48.838;9.330;2024-03-02T04:57:44;12.57;;;10.80;;
55603;SDS011;41468;48.838;9.330;2024-03-02T05:00:10;13.87;;;10.97;;
55603;SDS011;41468;48.838;9.330;2024-03-02T05:02:38;11.50;;;10.30;;
55603;SDS011;41468;48.838;9.330;2024-03-02T05:05:05;15.67;;;11.27;;
55603;SDS011;41468;48.838;9.330;2024-03-02T05:07:32;15.97;;;11.43;;
55603;SDS011;41468;48.838;9.330;2024-03-02T05:09:58;13.77;;;10.93;;
55603;SDS011;41468;48.838;9.330;2024-03-02T05:12:26;14.33;;;11.07;;
55603;SDS011;41468;48.838;9.330;2024-03-02T05:15:15;14.37;;;11.40;;
55603;SDS011;41468;48.838;9.330;2024-03-02T05:17:42;15.00;;;11.67;;
55603;SDS011;41468;48.838;9.330;2024-03-02T05:20:09;14.40;;;11.37;;
55603;SDS011;41468;48.838;9.330;2024-03-02T05:33:29;13.33;;;11.53;;
55603;SDS011;41468;48.838;9.330;2024-03-02T05:36:04;15.93;;;12.27;;
55603;SDS011;41468;48.838;9.330;2024-03-02T05:38:37;13.27;;;11.10;;
55603;SDS011;41468;48.838;9.330;2024-03-02T05:41:10;14.50;;;10.73;;
55603;SDS011;41468;48.838;9.330;2024-03-02T05:43:44;13.20;;;10.23;;
55603;SDS011;41468;48.838;9.330;2024-03-02T05:46:16;13.13;;;10.17;;
55603;SDS011;41468;48.838;9.330;2024-03-02T05:48:49;11.53;;;9.77;;
55603;SDS011;41468;48.838;9.330;2024-03-02T05:51:22;12.37;;;10.13;;
55603;SDS011;41468;48.838;9.330;2024-03-02T05:53:55;13.03;;;10.77;;
55603;SDS011;41468;48.838;9.330;2024-03-02T05:56:28;13.73;;;10.37;;
55603;SDS011;41468;48.838;9.330;2024-03-02T05:59:01;14.53;;;10.57;;
55603;SDS011;41468;48.838;9.330;2024-03-02T06:01:46;12.20;;;10.13;;
55603;SDS011;41468;48.838;9.330;2024-03-02T06:04:19;14.07;;;10.90;;
55603;SDS011;41468;48.838;9.330;2024-03-02T06:06:52;14.70;;;11.03;;
55603;SDS011;41468;48.838;9.330;2024-03-02T06:09:27;14.20;;;10.50;;
55603;SDS011;41468;48.838;9.330;2024-03-02T06:12:01;13.63;;;10.90;;
55603;SDS011;41468;48.838;9.330;2024-03-02T06:14:34;12.97;;;10.87;;
55603;SDS011;41468;48.838;9.330;2024-03-02T06:17:09;13.73;;;11.30;;
55603;SDS011;41468;48.838;9.330;2024-03-02T06:19:35;14.17;;;11.33;;
55603;SDS011;41468;48.838;9.330;2024-03-02T06:22:24;15.97;;;11.30;;
55603;SDS011;41468;48.838;9.330;2024-03-02T06:24:51;15.40;;;11.23;;
55603;SDS011;41468;48.838;9.330;2024-03-02T06:27:18;11.87;;;9.73;;
55603;SDS011;41468;48.838;9.330;2024-03-02T06:29:45;13.00;;;10.00;;
55603;SDS011;41468;48.838;9.330;2024-03-02T06:32:12;13.27;;;10.93;;
55603;SDS011;41468;48.838;9.330;2024-03-02T06:34:38;14.57;;;10.60;;
55603;SDS011;41468;48.838;9.330;2024-03-02T06:37:10;15.27;;;10.30;;
55603;SDS011;41468;48.838;9.330;2024-03-02T06:39:36;13.67;;;10.90;;
55603;SDS011;41468;48.838;9.330;2024-03-02T06:42:03;11.47;;;10.27;;
55603;SDS011;41468;48.838;9.330;2024-03-02T06:44:30;13.40;;;10.80;;
55603;SDS011;41468;48.838;9.330;2024-03-02T06:46:57;14.10;;;10.67;;
55603;SDS011;41468;48.838;9.330;2024-03-02T06:49:24;12.77;;;10.33;;
55603;SDS011;41468;48.838;9.330;2024-03-02T06:51:50;12.80;;;10.33;;
55603;SDS011;41468;48.838;9.330;2024-03-02T06:54:21;14.33;;;11.33;;
55603;SDS011;41468;48.838;9.330;2024-03-02T06:56:48;16.63;;;12.17;;
55603;SDS011;41468;48.838;9.330;2024-03-02T06:59:15;13.57;;;10.60;;
55603;SDS011;41468;48.838;9.330;2024-03-02T07:01:42;13.33;;;10.37;;
55603;SDS011;41468;48.838;9.330;2024-03-02T07:04:09;14.47;;;10.70;;
55603;SDS011;41468;48.838;9.330;2024-03-02T07:06:36;14.03;;;11.00;;
55603;SDS011;41468;48.838;9.330;2024-03-02T07:09:03;14.40;;;10.77;;
55603;SDS011;41468;48.838;9.330;2024-03-02T07:11:30;11.83;;;10.33;;
55603;SDS011;41468;48.838;9.330;2024-03-02T07:13:57;12.73;;;10.27;;
55603;SDS011;41468;48.838;9.330;2024-03-02T07:16:23;13.27;;;10.43;;
55603;SDS011;41468;48.838;9.330;2024-03-02T07:18:59;14.13;;;11.20;;
55603;SDS011;41468;48.838;9.330;2024-03-02T07:21:32;13.87;;;10.30;;
55603;SDS011;41468;48.838;9.330;2024-03-02T07:23:59;12.77;;;10.10;;
55603;SDS011;41468;48.838;9.330;2024-03-02T07:26:29;13.63;;;10.43;;
55603;SDS011;41468;48.838;9.330;2024-03-02T07:29:02;12.40;;;9.67;;
55603;SDS011;41468;48.838;9.330;2024-03-02T07:31:29;15.53;;;10.50;;
55603;SDS011;41468;48.838;9.330;2024-03-02T07:33:56;10.20;;;9.17;;
55603;SDS011;41468;48.838;9.330;2024-03-02T07:36:23;9.10;;;8.20;;
55603;SDS011;41468;48.838;9.330;2024-03-02T07:38:50;9.73;;;8.73;;
55603;SDS011;41468;48.838;9.330;2024-03-02T07:41:17;9.23;;;8.23;;
55603;SDS011;41468;48.838;9.330;2024-03-02T07:43:44;9.63;;;8.63;;
55603;SDS011;41468;48.838;9.330;2024-03-02T07:46:11;10.47;;;8.63;;
55603;SDS011;41468;48.838;9.330;2024-03-02T07:48:37;10.30;;;8.37;;
55603;SDS011;41468;48.838;9.330;2024-03-02T07:51:05;9.27;;;8.27;;
55603;SDS011;41468;48.838;9.330;2024-03-02T07:53:37;8.63;;;7.67;;
55603;SDS011;41468;48.838;9.330;2024-03-02T07:56:04;8.30;;;7.50;;
55603;SDS011;41468;48.838;9.330;2024-03-02T07:58:31;7.77;;;7.03;;
55603;SDS011;41468;48.838;9.330;2024-03-02T08:00:58;8.40;;;7.47;;
55603;SDS011;41468;48.838;9.330;2024-03-02T08:03:27;10.47;;;7.53;;
55603;SDS011;41468;48.838;9.330;2024-03-02T08:05:54;8.67;;;7.30;;
55603;SDS011;41468;48.838;9.330;2024-03-02T08:08:21;8.43;;;7.30;;
55603;SDS011;41468;48.838;9.330;2024-03-02T08:10:47;9.23;;;7.67;;
55603;SDS011;41468;48.838;9.330;2024-03-02T08:13:15;9.97;;;7.80;;
55603;SDS011;41468;48.838;9.330;2024-03-02T08:15:42;9.63;;;8.20;;
55603;SDS011;41468;48.838;9.330;2024-03-02T08:18:09;10.63;;;8.07;;
55603;SDS011;41468;48.838;9.330;2024-03-02T08:20:36;10.23;;;8.43;;
55603;SDS011;41468;48.838;9.330;2024-03-02T08:23:03;15.03;;;13.43;;
55603;SDS011;41468;48.838;9.330;2024-03-02T08:25:30;8.80;;;7.73;;
55603;SDS011;41468;48.838;9.330;2024-03-02T08:27:57;9.67;;;7.60;;
55603;SDS011;41468;48.838;9.330;2024-03-02T08:30:34;12.17;;;10.97;;
55603;SDS011;41468;48.838;9.330;2024-03-02T08:33:02;15.77;;;14.10;;
55603;SDS011;41468;48.838;9.330;2024-03-02T08:35:28;7.63;;;6.93;;
55603;SDS011;41468;48.838;9.330;2024-03-02T08:37:55;7.57;;;6.77;;
55603;SDS011;41468;48.838;9.330;2024-03-02T08:40:22;8.63;;;7.10;;
55603;SDS011;41468;48.838;9.330;2024-03-02T08:42:49;7.40;;;6.70;;
55603;SDS011;41468;48.838;9.330;2024-03-02T08:45:15;7.43;;;6.00;;
55603;SDS011;41468;48.838;9.330;2024-03-02T08:47:49;9.17;;;6.77;;
55603;SDS011;41468;48.838;9.330;2024-03-02T08:50:15;7.20;;;6.50;;
55603;SDS011;41468;48.838;9.330;2024-03-02T08:52:42;7.63;;;6.83;;
55603;SDS011;41468;48.838;9.330;2024-03-02T08:55:09;12.13;;;6.90;;
55603;SDS011;41468;48.838;9.330;2024-03-02T08:57:37;10.10;;;7.40;;
55603;SDS011;41468;48.838;9.330;2024-03-02T09:00:04;8.93;;;7.13;;
55603;SDS011;41468;48.838;9.330;2024-03-02T09:02:32;6.83;;;6.13;;
55603;SDS011;41468;48.838;9.330;2024-03-02T09:04:58;7.10;;;6.40;;
55603;SDS011;41468;48.838;9.330;2024-03-02T09:07:25;6.77;;;6.17;;
55603;SDS011;41468;48.838;9.330;2024-03-02T09:09:52;7.07;;;5.90;;
55603;SDS011;41468;48.838;9.330;2024-03-02T09:12:19;6.33;;;5.73;;
55603;SDS011;41468;48.838;9.330;2024-03-02T09:14:46;6.90;;;6.20;;
55603;SDS011;41468;48.838;9.330;2024-03-02T09:17:13;7.80;;;6.90;;
55603;SDS011;41468;48.838;9.330;2024-03-02T09:19:40;6.60;;;6.00;;
55603;SDS011;41468;48.838;9.330;2024-03-02T09:22:18;6.03;;;5.47;;
55603;SDS011;41468;48.838;9.330;2024-03-02T09:24:45;5.93;;;5.33;;
55603;SDS011;41468;48.838;9.330;2024-03-02T09:27:12;5.10;;;4.70;;
55603;SDS011;41468;48.838;9.330;2024-03-02T09:29:39;5.50;;;5.00;;
55603;SDS011;41468;48.838;9.330;2024-03-02T09:32:06;5.87;;;5.33;;
55603;SDS011;41468;48.838;9.330;2024-03-02T09:34:33;5.90;;;5.40;;
55603;SDS011;41468;48.838;9.330;2024-03-02T09:37:00;6.37;;;5.77;;
55603;SDS011;41468;48.838;9.330;2024-03-02T09:39:27;6.87;;;6.20;;
55603;SDS011;41468;48.838;9.330;2024-03-02T09:41:54;5.67;;;5.17;;
55603;SDS011;41468;48.838;9.330;2024-03-02T09:44:21;5.27;;;4.87;;
55603;SDS011;41468;48.838;9.330;2024-03-02T09:46:49;6.93;;;5.20;;
55603;SDS011;41468;48.838;9.330;2024-03-02T09:49:23;5.07;;;4.63;;
55603;SDS011;41468;48.838;9.330;2024-03-02T09:51:50;4.97;;;4.53;;
55603;SDS011;41468;48.838;9.330;2024-03-02T09:54:17;4.80;;;4.30;;
55603;SDS011;41468;48.838;9.330;2024-03-02T09:56:49;4.80;;;4.30;;
55603;SDS011;41468;48.838;9.330;2024-03-02T09:59:22;6.80;;;4.00;;
55603;SDS011;41468;48.838;9.330;2024-03-02T10:01:55;3.63;;;3.33;;
55603;SDS011;41468;48.838;9.330;2024-03-02T10:04:26;4.13;;;3.83;;
55603;SDS011;41468;48.838;9.330;2024-03-02T10:07:16;4.03;;;3.63;;
55603;SDS011;41468;48.838;9.330;2024-03-02T10:09:44;3.70;;;3.40;;
55603;SDS011;41468;48.838;9.330;2024-03-02T10:12:23;3.87;;;3.50;;
55603;SDS011;41468;48.838;9.330;2024-03-02T10:14:49;3.57;;;3.27;;
55603;SDS011;41468;48.838;9.330;2024-03-02T10:17:31;3.47;;;3.03;;
55603;SDS011;41468;48.838;9.330;2024-03-02T10:19:58;3.60;;;3.30;;
55603;SDS011;41468;48.838;9.330;2024-03-02T10:22:25;3.30;;;3.00;;
55603;SDS011;41468;48.838;9.330;2024-03-02T10:24:53;3.67;;;3.37;;
55603;SDS011;41468;48.838;9.330;2024-03-02T10:27:26;2.93;;;2.73;;
55603;SDS011;41468;48.838;9.330;2024-03-02T10:29:53;4.23;;;2.97;;
55603;SDS011;41468;48.838;9.330;2024-03-02T10:32:22;2.70;;;2.50;;
55603;SDS011;41468;48.838;9.330;2024-03-02T10:34:49;2.70;;;2.50;;
55603;SDS011;41468;48.838;9.330;2024-03-02T10:37:16;2.60;;;2.40;;
55603;SDS011;41468;48.838;9.330;2024-03-02T10:39:46;2.08;;;1.98;;
55603;SDS011;41468;48.838;9.330;2024-03-02T10:42:14;2.40;;;2.20;;
55603;SDS011;41468;48.838;9.330;2024-03-02T10:44:41;3.40;;;2.83;;
55603;SDS011;41468;48.838;9.330;2024-03-02T10:47:09;2.50;;;2.35;;
55603;SDS011;41468;48.838;9.330;2024-03-02T10:49:38;2.30;;;2.20;;
55603;SDS011;41468;48.838;9.330;2024-03-02T10:52:09;2.70;;;2.50;;
55603;SDS011;41468;48.838;9.330;2024-03-02T10:54:40;2.65;;;2.45;;
55603;SDS011;41468;48.838;9.330;2024-03-02T10:57:07;2.80;;;2.60;;
55603;SDS011;41468;48.838;9.330;2024-03-02T10:59:38;2.55;;;2.40;;
55603;SDS011;41468;48.838;9.330;2024-03-02T11:02:18;2.22;;;2.13;;
55603;SDS011;41468;48.838;9.330;2024-03-02T11:04:48;2.90;;;1.98;;
55603;SDS011;41468;48.838;9.330;2024-03-02T11:07:17;2.05;;;1.95;;
55603;SDS011;41468;48.838;9.330;2024-03-02T11:09:51;2.60;;;2.40;;
55603;SDS011;41468;48.838;9.330;2024-03-02T11:12:31;2.42;;;2.22;;
55603;SDS011;41468;48.838;9.330;2024-03-02T11:15:04;2.50;;;2.30;;
55603;SDS011;41468;48.838;9.330;2024-03-02T11:17:36;2.00;;;1.90;;
55603;SDS011;41468;48.838;9.330;2024-03-02T11:20:07;2.10;;;2.00;;
55603;SDS011;41468;48.838;9.330;2024-03-02T11:22:39;2.13;;;2.03;;
55603;SDS011;41468;48.838;9.330;2024-03-02T11:25:08;2.03;;;1.92;;
55603;SDS011;41468;48.838;9.330;2024-03-02T11:33:01;2.00;;;1.90;;
55603;SDS011;41468;48.838;9.330;2024-03-02T11:35:38;1.80;;;1.70;;
55603;SDS011;41468;48.838;9.330;2024-03-02T11:38:09;2.15;;;1.85;;
55603;SDS011;41468;48.838;9.330;2024-03-02T11:40:36;1.77;;;1.67;;
55603;SDS011;41468;48.838;9.330;2024-03-02T11:43:06;3.85;;;2.00;;
55603;SDS011;41468;48.838;9.330;2024-03-02T11:45:35;1.50;;;1.40;;
55603;SDS011;41468;48.838;9.330;2024-03-02T11:48:07;2.35;;;1.58;;
55603;SDS011;41468;48.838;9.330;2024-03-02T11:50:42;1.60;;;1.50;;
55603;SDS011;41468;48.838;9.330;2024-03-02T11:53:25;1.50;;;1.40;;
55603;SDS011;41468;48.838;9.330;2024-03-02T11:55:56;1.63;;;1.52;;
55603;SDS011;41468;48.838;9.330;2024-03-02T11:58:24;1.27;;;1.23;;
55603;SDS011;41468;48.838;9.330;2024-03-02T12:00:53;5.40;;;1.42;;
55603;SDS011;41468;48.838;9.330;2024-03-02T12:03:22;1.33;;;1.23;;
55603;SDS011;41468;48.838;9.330;2024-03-02T12:05:55;1.20;;;1.20;;
55603;SDS011;41468;48.838;9.330;2024-03-02T12:08:32;1.30;;;1.20;;
55603;SDS011;41468;48.838;9.330;2024-03-02T12:11:12;1.10;;;1.10;;
55603;SDS011;41468;48.838;9.330;2024-03-02T12:13:48;1.00;;;1.00;;
55603;SDS011;41468;48.838;9.330;2024-03-02T12:16:24;0.80;;;0.80;;
55603;SDS011;41468;48.838;9.330;2024-03-02T12:18:51;1.20;;;1.20;;
55603;SDS011;41468;48.838;9.330;2024-03-02T12:21:18;1.27;;;1.20;;
55603;SDS011;41468;48.838;9.330;2024-03-02T12:23:45;1.58;;;1.30;;
55603;SDS011;41468;48.838;9.330;2024-03-02T12:26:11;1.00;;;1.00;;
55603;SDS011;41468;48.838;9.330;2024-03-02T12:28:38;0.93;;;0.93;;
55603;SDS011;41468;48.838;9.330;2024-03-02T12:31:05;0.98;;;0.98;;
55603;SDS011;41468;48.838;9.330;2024-03-02T12:33:37;0.95;;;0.80;;
55603;SDS011;41468;48.838;9.330;2024-03-02T12:36:04;1.00;;;1.00;;
55603;SDS011;41468;48.838;9.330;2024-03-02T12:38:31;1.30;;;1.20;;
55603;SDS011;41468;48.838;9.330;2024-03-02T12:40:58;0.90;;;0.90;;
55603;SDS011;41468;48.838;9.330;2024-03-02T12:43:29;1.10;;;1.02;;
55603;SDS011;41468;48.838;9.330;2024-03-02T12:45:56;1.70;;;1.40;;
55603;SDS011;41468;48.838;9.330;2024-03-02T12:48:23;1.70;;;1.60;;
55603;SDS011;41468;48.838;9.330;2024-03-02T12:50:51;3.40;;;1.10;;
55603;SDS011;41468;48.838;9.330;2024-03-02T12:53:17;1.30;;;1.20;;
55603;SDS011;41468;48.838;9.330;2024-03-02T12:55:44;1.20;;;1.20;;
55603;SDS011;41468;48.838;9.330;2024-03-02T12:58:18;1.40;;;1.40;;
55603;SDS011;41468;48.838;9.330;2024-03-02T13:00:48;1.20;;;1.20;;
55603;SDS011;41468;48.838;9.330;2024-03-02T13:03:17;1.83;;;1.73;;
55603;SDS011;41468;48.838;9.330;2024-03-02T13:05:49;1.10;;;1.10;;
55603;SDS011;41468;48.838;9.330;2024-03-02T13:08:20;1.35;;;1.20;;
55603;SDS011;41468;48.838;9.330;2024-03-02T13:10:47;1.90;;;1.58;;
55603;SDS011;41468;48.838;9.330;2024-03-02T13:13:13;1.55;;;1.45;;
55603;SDS011;41468;48.838;9.330;2024-03-02T13:15:41;1.55;;;1.55;;
55603;SDS011;41468;48.838;9.330;2024-03-02T13:18:09;1.92;;;1.30;;
55603;SDS011;41468;48.838;9.330;2024-03-02T13:20:35;1.40;;;1.30;;
55603;SDS011;41468;48.838;9.330;2024-03-02T13:23:03;2.38;;;1.48;;
55603;SDS011;41468;48.838;9.330;2024-03-02T13:25:30;2.83;;;1.60;;
55603;SDS011;41468;48.838;9.330;2024-03-02T13:27:58;1.80;;;1.40;;
55603;SDS011;41468;48.838;9.330;2024-03-02T13:30:26;1.60;;;1.50;;
55603;SDS011;41468;48.838;9.330;2024-03-02T13:32:52;1.40;;;1.40;;
55603;SDS011;41468;48.838;9.330;2024-03-02T13:35:24;1.20;;;1.20;;
55603;SDS011;41468;48.838;9.330;2024-03-02T13:37:51;1.15;;;1.15;;
55603;SDS011;41468;48.838;9.330;2024-03-02T13:40:18;2.78;;;1.52;;
55603;SDS011;41468;48.838;9.330;2024-03-02T13:42:47;1.30;;;1.23;;
55603;SDS011;41468;48.838;9.330;2024-03-02T13:45:13;1.08;;;0.98;;
55603;SDS011;41468;48.838;9.330;2024-03-02T13:47:40;1.30;;;1.20;;
55603;SDS011;41468;48.838;9.330;2024-03-02T13:50:07;1.20;;;1.20;;
55603;SDS011;41468;48.838;9.330;2024-03-02T13:52:38;1.13;;;1.10;;
55603;SDS011;41468;48.838;9.330;2024-03-02T13:55:05;1.50;;;1.40;;
55603;SDS011;41468;48.838;9.330;2024-03-02T13:57:33;1.42;;;1.33;;
55603;SDS011;41468;48.838;9.330;2024-03-02T14:00:00;1.45;;;1.35;;
55603;SDS011;41468;48.838;9.330;2024-03-02T14:02:28;1.25;;;1.25;;
55603;SDS011;41468;48.838;9.330;2024-03-02T14:04:55;2.58;;;2.42;;
55603;SDS011;41468;48.838;9.330;2024-03-02T14:07:21;1.00;;;1.00;;
55603;SDS011;41468;48.838;9.330;2024-03-02T14:09:48;0.95;;;0.95;;
55603;SDS011;41468;48.838;9.330;2024-03-02T14:12:15;1.83;;;1.38;;
55603;SDS011;41468;48.838;9.330;2024-03-02T14:14:42;0.90;;;0.90;;
55603;SDS011;41468;48.838;9.330;2024-03-02T14:17:08;1.35;;;1.20;;
55603;SDS011;41468;48.838;9.330;2024-03-02T14:19:41;0.85;;;0.85;;
55603;SDS011;41468;48.838;9.330;2024-03-02T14:22:07;1.15;;;1.15;;
55603;SDS011;41468;48.838;9.330;2024-03-02T14:24:41;1.00;;;1.00;;
55603;SDS011;41468;48.838;9.330;2024-03-02T14:27:09;1.10;;;1.00;;
55603;SDS011;41468;48.838;9.330;2024-03-02T14:29:53;0.80;;;0.80;;
55603;SDS011;41468;48.838;9.330;2024-03-02T14:32:20;1.00;;;1.00;;
55603;SDS011;41468;48.838;9.330;2024-03-02T14:34:47;1.92;;;1.00;;
55603;SDS011;41468;48.838;9.330;2024-03-02T14:37:14;1.02;;;1.02;;
55603;SDS011;41468;48.838;9.330;2024-03-02T14:39:52;1.13;;;1.13;;
55603;SDS011;41468;48.838;9.330;2024-03-02T14:42:19;0.77;;;0.77;;
55603;SDS011;41468;48.838;9.330;2024-03-02T14:44:45;1.20;;;1.20;;
55603;SDS011;41468;48.838;9.330;2024-03-02T14:47:12;0.80;;;0.80;;
55603;SDS011;41468;48.838;9.330;2024-03-02T14:49:39;1.00;;;0.90;;
55603;SDS011;41468;48.838;9.330;2024-03-02T14:52:06;1.58;;;1.10;;
55603;SDS011;41468;48.838;9.330;2024-03-02T14:54:35;0.90;;;0.90;;
55603;SDS011;41468;48.838;9.330;2024-03-02T14:57:02;1.27;;;1.15;;
55603;SDS011;41468;48.838;9.330;2024-03-02T14:59:29;2.38;;;1.00;;
55603;SDS011;41468;48.838;9.330;2024-03-02T15:01:56;1.00;;;1.00;;
55603;SDS011;41468;48.838;9.330;2024-03-02T15:04:23;0.90;;;0.90;;
55603;SDS011;41468;48.838;9.330;2024-03-02T15:06:50;1.33;;;1.30;;
55603;SDS011;41468;48.838;9.330;2024-03-02T15:09:17;1.10;;;1.10;;
55603;SDS011;41468;48.838;9.330;2024-03-02T15:11:47;1.10;;;1.10;;
55603;SDS011;41468;48.838;9.330;2024-03-02T15:14:14;1.40;;;1.30;;
55603;SDS011;41468;48.838;9.330;2024-03-02T15:16:41;1.50;;;1.40;;
55603;SDS011;41468;48.838;9.330;2024-03-02T15:19:08;1.48;;;1.35;;
55603;SDS011;41468;48.838;9.330;2024-03-02T15:21:35;1.40;;;1.27;;
55603;SDS011;41468;48.838;9.330;2024-03-02T15:24:02;1.20;;;1.20;;
55603;SDS011;41468;48.838;9.330;2024-03-02T15:26:29;1.10;;;1.10;;
55603;SDS011;41468;48.838;9.330;2024-03-02T15:28:56;1.00;;;1.00;;